sensor_id;sensor_type;location;lat;lon;timestamp;P1;durP1;ratioP1;P2;durP2;ratioP2
21472;SDS011;10898;48.072;11.682;2023-12-04T00:00:54;15.75;;;9.57;;
21472;SDS011;10898;48.072;11.682;2023-12-04T00:02:56;14.77;;;9.70;;
21472;SDS011;10898;48.072;11.682;2023-12-04T00:04:58;13.68;;;9.35;;
21472;SDS011;10898;48.072;11.682;2023-12-04T00:06:59;13.18;;;8.95;;
21472;SDS011;10898;48.072;11.682;2023-12-04T00:09:01;15.32;;;9.60;;
21472;SDS011;10898;48.072;11.682;2023-12-04T00:11:04;13.43;;;9.52;;
21472;SDS011;10898;48.072;11.682;2023-12-04T00:13:06;16.50;;;10.27;;
21472;SDS011;10898;48.072;11.682;2023-12-04T00:15:08;15.27;;;10.38;;
21472;SDS011;10898;48.072;11.682;2023-12-04T00:17:10;16.10;;;10.27;;
21472;SDS011;10898;48.072;11.682;2023-12-04T00:19:12;17.30;;;10.80;;
21472;SDS011;10898;48.072;11.682;2023-12-04T00:21:14;15.68;;;9.98;;
21472;SDS011;10898;48.072;11.682;2023-12-04T00:23:16;16.77;;;10.63;;
21472;SDS011;10898;48.072;11.682;2023-12-04T00:25:18;16.77;;;11.15;;
21472;SDS011;10898;48.072;11.682;2023-12-04T00:27:20;12.50;;;9.50;;
21472;SDS011;10898;48.072;11.682;2023-12-04T00:29:22;14.90;;;9.55;;
21472;SDS011;10898;48.072;11.682;2023-12-04T00:31:24;14.32;;;10.65;;
21472;SDS011;10898;48.072;11.682;2023-12-04T00:33:25;15.38;;;10.18;;
21472;SDS011;10898;48.072;11.682;2023-12-04T00:35:27;16.00;;;9.80;;
21472;SDS011;10898;48.072;11.682;2023-12-04T00:37:30;16.50;;;10.50;;
21472;SDS011;10898;48.072;11.682;2023-12-04T00:39:31;14.32;;;9.55;;
21472;SDS011;10898;48.072;11.682;2023-12-04T00:41:33;14.00;;;9.38;;
21472;SDS011;10898;48.072;11.682;2023-12-04T00:43:38;15.98;;;9.40;;
21472;SDS011;10898;48.072;11.682;2023-12-04T00:45:39;15.45;;;9.95;;
21472;SDS011;10898;48.072;11.682;2023-12-04T00:47:41;11.93;;;8.05;;
21472;SDS011;10898;48.072;11.682;2023-12-04T00:49:43;12.65;;;8.45;;
21472;SDS011;10898;48.072;11.682;2023-12-04T00:51:45;12.77;;;8.95;;
21472;SDS011;10898;48.072;11.682;2023-12-04T00:53:47;11.95;;;8.80;;
21472;SDS011;10898;48.072;11.682;2023-12-04T00:55:49;12.63;;;8.40;;
21472;SDS011;10898;48.072;11.682;2023-12-04T00:57:51;12.20;;;7.82;;
21472;SDS011;10898;48.072;11.682;2023-12-04T00:59:52;10.35;;;7.88;;
21472;SDS011;10898;48.072;11.682;2023-12-04T01:01:54;10.85;;;7.55;;
21472;SDS011;10898;48.072;11.682;2023-12-04T01:03:56;9.48;;;6.70;;
21472;SDS011;10898;48.072;11.682;2023-12-04T01:05:58;8.60;;;7.03;;
21472;SDS011;10898;48.072;11.682;2023-12-04T01:08:00;7.45;;;5.70;;
21472;SDS011;10898;48.072;11.682;2023-12-04T01:10:03;8.85;;;6.90;;
21472;SDS011;10898;48.072;11.682;2023-12-04T01:12:05;9.23;;;6.72;;
21472;SDS011;10898;48.072;11.682;2023-12-04T01:14:07;8.60;;;6.93;;
21472;SDS011;10898;48.072;11.682;2023-12-04T01:16:09;10.25;;;6.75;;
21472;SDS011;10898;48.072;11.682;2023-12-04T01:18:11;8.05;;;6.20;;
21472;SDS011;10898;48.072;11.682;2023-12-04T01:20:13;8.32;;;6.75;;
21472;SDS011;10898;48.072;11.682;2023-12-04T01:22:15;8.30;;;6.32;;
21472;SDS011;10898;48.072;11.682;2023-12-04T01:24:16;9.43;;;6.68;;
21472;SDS011;10898;48.072;11.682;2023-12-04T01:26:18;10.45;;;6.50;;
21472;SDS011;10898;48.072;11.682;2023-12-04T01:28:20;8.10;;;5.90;;
21472;SDS011;10898;48.072;11.682;2023-12-04T01:30:22;9.85;;;6.55;;
21472;SDS011;10898;48.072;11.682;2023-12-04T01:32:23;9.38;;;6.90;;
21472;SDS011;10898;48.072;11.682;2023-12-04T01:34:25;8.93;;;6.50;;
21472;SDS011;10898;48.072;11.682;2023-12-04T01:36:27;9.02;;;6.30;;
21472;SDS011;10898;48.072;11.682;2023-12-04T01:38:29;7.47;;;6.38;;
21472;SDS011;10898;48.072;11.682;2023-12-04T01:40:32;8.30;;;6.43;;
21472;SDS011;10898;48.072;11.682;2023-12-04T01:42:35;9.27;;;6.32;;
21472;SDS011;10898;48.072;11.682;2023-12-04T01:44:37;7.57;;;6.20;;
21472;SDS011;10898;48.072;11.682;2023-12-04T01:46:40;8.98;;;6.10;;
21472;SDS011;10898;48.072;11.682;2023-12-04T01:48:44;7.70;;;5.85;;
21472;SDS011;10898;48.072;11.682;2023-12-04T01:50:48;7.95;;;6.07;;
21472;SDS011;10898;48.072;11.682;2023-12-04T01:52:50;9.52;;;6.60;;
21472;SDS011;10898;48.072;11.682;2023-12-04T01:54:54;10.45;;;6.03;;
21472;SDS011;10898;48.072;11.682;2023-12-04T01:56:55;9.88;;;6.63;;
21472;SDS011;10898;48.072;11.682;2023-12-04T01:58:58;9.13;;;5.97;;
21472;SDS011;10898;48.072;11.682;2023-12-04T02:01:00;8.35;;;6.60;;
21472;SDS011;10898;48.072;11.682;2023-12-04T02:03:02;7.05;;;5.68;;
21472;SDS011;10898;48.072;11.682;2023-12-04T02:05:05;8.65;;;5.82;;
21472;SDS011;10898;48.072;11.682;2023-12-04T02:07:12;7.28;;;5.97;;
21472;SDS011;10898;48.072;11.682;2023-12-04T02:09:13;8.98;;;6.25;;
21472;SDS011;10898;48.072;11.682;2023-12-04T02:11:17;7.38;;;5.82;;
21472;SDS011;10898;48.072;11.682;2023-12-04T02:13:19;9.57;;;6.22;;
21472;SDS011;10898;48.072;11.682;2023-12-04T02:15:22;7.90;;;6.13;;
21472;SDS011;10898;48.072;11.682;2023-12-04T02:19:26;8.38;;;6.45;;
21472;SDS011;10898;48.072;11.682;2023-12-04T02:21:28;6.70;;;5.63;;
21472;SDS011;10898;48.072;11.682;2023-12-04T02:23:30;6.85;;;5.72;;
21472;SDS011;10898;48.072;11.682;2023-12-04T02:25:32;6.05;;;5.20;;
21472;SDS011;10898;48.072;11.682;2023-12-04T02:27:39;7.47;;;5.45;;
21472;SDS011;10898;48.072;11.682;2023-12-04T02:30:08;6.63;;;5.32;;
21472;SDS011;10898;48.072;11.682;2023-12-04T02:32:11;7.82;;;5.93;;
21472;SDS011;10898;48.072;11.682;2023-12-04T02:34:16;8.00;;;6.10;;
21472;SDS011;10898;48.072;11.682;2023-12-04T02:36:19;7.13;;;5.22;;
21472;SDS011;10898;48.072;11.682;2023-12-04T02:38:24;8.55;;;5.90;;
21472;SDS011;10898;48.072;11.682;2023-12-04T02:40:26;7.70;;;5.30;;
21472;SDS011;10898;48.072;11.682;2023-12-04T02:42:28;6.85;;;5.40;;
21472;SDS011;10898;48.072;11.682;2023-12-04T02:44:30;7.10;;;5.60;;
21472;SDS011;10898;48.072;11.682;2023-12-04T02:46:32;8.07;;;5.93;;
21472;SDS011;10898;48.072;11.682;2023-12-04T02:48:34;6.53;;;5.13;;
21472;SDS011;10898;48.072;11.682;2023-12-04T02:50:36;7.93;;;5.70;;
21472;SDS011;10898;48.072;11.682;2023-12-04T02:52:41;5.80;;;4.93;;
21472;SDS011;10898;48.072;11.682;2023-12-04T02:54:43;6.80;;;5.35;;
21472;SDS011;10898;48.072;11.682;2023-12-04T02:56:44;7.72;;;5.72;;
21472;SDS011;10898;48.072;11.682;2023-12-04T02:58:46;7.72;;;5.68;;
21472;SDS011;10898;48.072;11.682;2023-12-04T03:00:48;6.65;;;5.95;;
21472;SDS011;10898;48.072;11.682;2023-12-04T03:02:50;6.75;;;5.80;;
21472;SDS011;10898;48.072;11.682;2023-12-04T03:04:51;6.68;;;5.40;;
21472;SDS011;10898;48.072;11.682;2023-12-04T03:06:53;8.27;;;5.43;;
21472;SDS011;10898;48.072;11.682;2023-12-04T03:08:55;5.90;;;5.20;;
21472;SDS011;10898;48.072;11.682;2023-12-04T03:10:58;7.97;;;5.25;;
21472;SDS011;10898;48.072;11.682;2023-12-04T03:13:02;7.95;;;5.72;;
21472;SDS011;10898;48.072;11.682;2023-12-04T03:15:04;7.85;;;6.32;;
21472;SDS011;10898;48.072;11.682;2023-12-04T03:17:06;7.22;;;5.65;;
21472;SDS011;10898;48.072;11.682;2023-12-04T03:19:08;6.97;;;5.65;;
21472;SDS011;10898;48.072;11.682;2023-12-04T03:21:10;7.20;;;5.63;;
21472;SDS011;10898;48.072;11.682;2023-12-04T03:23:12;7.63;;;5.45;;
21472;SDS011;10898;48.072;11.682;2023-12-04T03:25:14;7.07;;;5.68;;
21472;SDS011;10898;48.072;11.682;2023-12-04T03:27:16;8.23;;;5.95;;
21472;SDS011;10898;48.072;11.682;2023-12-04T03:29:17;6.95;;;5.25;;
21472;SDS011;10898;48.072;11.682;2023-12-04T03:31:19;8.20;;;6.03;;
21472;SDS011;10898;48.072;11.682;2023-12-04T03:33:22;8.50;;;5.80;;
21472;SDS011;10898;48.072;11.682;2023-12-04T03:35:24;7.55;;;5.57;;
21472;SDS011;10898;48.072;11.682;2023-12-04T03:37:25;7.30;;;5.80;;
21472;SDS011;10898;48.072;11.682;2023-12-04T03:39:27;7.72;;;6.03;;
21472;SDS011;10898;48.072;11.682;2023-12-04T03:41:29;8.85;;;5.75;;
21472;SDS011;10898;48.072;11.682;2023-12-04T03:43:31;9.38;;;6.35;;
21472;SDS011;10898;48.072;11.682;2023-12-04T03:45:33;9.02;;;6.32;;
21472;SDS011;10898;48.072;11.682;2023-12-04T03:47:34;8.93;;;5.88;;
21472;SDS011;10898;48.072;11.682;2023-12-04T03:49:36;7.40;;;5.93;;
21472;SDS011;10898;48.072;11.682;2023-12-04T03:51:38;7.03;;;5.90;;
21472;SDS011;10898;48.072;11.682;2023-12-04T03:53:40;7.07;;;5.75;;
21472;SDS011;10898;48.072;11.682;2023-12-04T03:55:42;8.65;;;6.20;;
21472;SDS011;10898;48.072;11.682;2023-12-04T03:57:43;8.90;;;6.75;;
21472;SDS011;10898;48.072;11.682;2023-12-04T03:59:46;7.85;;;6.35;;
21472;SDS011;10898;48.072;11.682;2023-12-04T04:01:48;8.27;;;6.10;;
21472;SDS011;10898;48.072;11.682;2023-12-04T04:03:50;7.90;;;6.53;;
21472;SDS011;10898;48.072;11.682;2023-12-04T04:05:51;8.35;;;6.05;;
21472;SDS011;10898;48.072;11.682;2023-12-04T04:07:53;7.57;;;5.70;;
21472;SDS011;10898;48.072;11.682;2023-12-04T04:09:55;6.15;;;5.22;;
21472;SDS011;10898;48.072;11.682;2023-12-04T04:11:57;7.88;;;5.80;;
21472;SDS011;10898;48.072;11.682;2023-12-04T04:13:59;7.28;;;5.78;;
21472;SDS011;10898;48.072;11.682;2023-12-04T04:16:00;8.93;;;6.03;;
21472;SDS011;10898;48.072;11.682;2023-12-04T04:20:05;8.00;;;5.70;;
21472;SDS011;10898;48.072;11.682;2023-12-04T04:22:08;8.32;;;5.50;;
21472;SDS011;10898;48.072;11.682;2023-12-04T04:24:09;10.30;;;6.53;;
21472;SDS011;10898;48.072;11.682;2023-12-04T04:26:11;7.93;;;5.65;;
21472;SDS011;10898;48.072;11.682;2023-12-04T04:28:13;6.97;;;6.07;;
21472;SDS011;10898;48.072;11.682;2023-12-04T04:30:15;9.05;;;6.03;;
21472;SDS011;10898;48.072;11.682;2023-12-04T04:32:18;8.30;;;6.22;;
21472;SDS011;10898;48.072;11.682;2023-12-04T04:34:21;8.75;;;6.40;;
21472;SDS011;10898;48.072;11.682;2023-12-04T04:36:23;8.82;;;5.55;;
21472;SDS011;10898;48.072;11.682;2023-12-04T04:38:25;7.72;;;6.07;;
21472;SDS011;10898;48.072;11.682;2023-12-04T04:40:28;7.43;;;5.63;;
21472;SDS011;10898;48.072;11.682;2023-12-04T04:42:30;8.60;;;6.18;;
21472;SDS011;10898;48.072;11.682;2023-12-04T04:44:32;10.88;;;6.97;;
21472;SDS011;10898;48.072;11.682;2023-12-04T04:46:34;9.50;;;6.20;;
21472;SDS011;10898;48.072;11.682;2023-12-04T04:48:35;9.73;;;6.10;;
21472;SDS011;10898;48.072;11.682;2023-12-04T04:50:37;9.90;;;6.55;;
21472;SDS011;10898;48.072;11.682;2023-12-04T04:52:39;9.57;;;6.65;;
21472;SDS011;10898;48.072;11.682;2023-12-04T04:54:41;9.27;;;6.22;;
21472;SDS011;10898;48.072;11.682;2023-12-04T04:56:43;7.05;;;5.18;;
21472;SDS011;10898;48.072;11.682;2023-12-04T04:58:44;9.25;;;6.30;;
21472;SDS011;10898;48.072;11.682;2023-12-04T05:00:53;7.40;;;5.30;;
21472;SDS011;10898;48.072;11.682;2023-12-04T05:02:55;7.97;;;6.47;;
21472;SDS011;10898;48.072;11.682;2023-12-04T05:04:56;12.00;;;7.30;;
21472;SDS011;10898;48.072;11.682;2023-12-04T05:06:58;8.68;;;6.85;;
21472;SDS011;10898;48.072;11.682;2023-12-04T05:09:00;10.13;;;6.60;;
21472;SDS011;10898;48.072;11.682;2023-12-04T05:11:02;14.82;;;6.75;;
21472;SDS011;10898;48.072;11.682;2023-12-04T05:13:04;9.23;;;6.57;;
21472;SDS011;10898;48.072;11.682;2023-12-04T05:15:06;8.13;;;6.00;;
21472;SDS011;10898;48.072;11.682;2023-12-04T05:19:10;7.83;;;6.30;;
21472;SDS011;10898;48.072;11.682;2023-12-04T05:21:12;7.65;;;6.40;;
21472;SDS011;10898;48.072;11.682;2023-12-04T05:23:13;9.00;;;6.20;;
21472;SDS011;10898;48.072;11.682;2023-12-04T05:25:15;8.60;;;6.30;;
21472;SDS011;10898;48.072;11.682;2023-12-04T05:27:17;8.85;;;6.22;;
21472;SDS011;10898;48.072;11.682;2023-12-04T05:31:21;8.18;;;5.80;;
21472;SDS011;10898;48.072;11.682;2023-12-04T05:33:23;8.43;;;5.68;;
21472;SDS011;10898;48.072;11.682;2023-12-04T05:35:25;9.55;;;5.75;;
21472;SDS011;10898;48.072;11.682;2023-12-04T05:37:27;8.80;;;6.03;;
21472;SDS011;10898;48.072;11.682;2023-12-04T05:39:29;11.52;;;6.30;;
21472;SDS011;10898;48.072;11.682;2023-12-04T05:41:30;11.02;;;6.78;;
21472;SDS011;10898;48.072;11.682;2023-12-04T05:43:32;6.93;;;6.10;;
21472;SDS011;10898;48.072;11.682;2023-12-04T05:45:34;9.02;;;5.88;;
21472;SDS011;10898;48.072;11.682;2023-12-04T05:49:38;8.20;;;5.77;;
21472;SDS011;10898;48.072;11.682;2023-12-04T05:51:39;7.75;;;5.47;;
21472;SDS011;10898;48.072;11.682;2023-12-04T05:53:41;9.63;;;6.43;;
21472;SDS011;10898;48.072;11.682;2023-12-04T05:55:43;8.40;;;5.60;;
21472;SDS011;10898;48.072;11.682;2023-12-04T05:57:47;8.45;;;5.75;;
21472;SDS011;10898;48.072;11.682;2023-12-04T05:59:49;10.43;;;6.57;;
21472;SDS011;10898;48.072;11.682;2023-12-04T06:01:51;6.90;;;5.35;;
21472;SDS011;10898;48.072;11.682;2023-12-04T06:03:52;7.55;;;6.13;;
21472;SDS011;10898;48.072;11.682;2023-12-04T06:05:54;9.05;;;6.15;;
21472;SDS011;10898;48.072;11.682;2023-12-04T06:07:59;6.35;;;5.28;;
21472;SDS011;10898;48.072;11.682;2023-12-04T06:10:01;6.35;;;5.38;;
21472;SDS011;10898;48.072;11.682;2023-12-04T06:12:04;8.43;;;5.50;;
21472;SDS011;10898;48.072;11.682;2023-12-04T06:14:09;6.53;;;5.80;;
21472;SDS011;10898;48.072;11.682;2023-12-04T06:16:12;7.25;;;5.68;;
21472;SDS011;10898;48.072;11.682;2023-12-04T06:18:14;6.68;;;5.85;;
21472;SDS011;10898;48.072;11.682;2023-12-04T06:20:15;9.45;;;6.00;;
21472;SDS011;10898;48.072;11.682;2023-12-04T06:22:17;9.70;;;6.35;;
21472;SDS011;10898;48.072;11.682;2023-12-04T06:24:21;8.15;;;6.20;;
21472;SDS011;10898;48.072;11.682;2023-12-04T06:28:25;11.18;;;6.75;;
21472;SDS011;10898;48.072;11.682;2023-12-04T06:30:27;8.65;;;6.10;;
21472;SDS011;10898;48.072;11.682;2023-12-04T06:34:31;7.95;;;6.30;;
21472;SDS011;10898;48.072;11.682;2023-12-04T06:38:39;9.20;;;5.72;;
21472;SDS011;10898;48.072;11.682;2023-12-04T06:40:42;9.20;;;7.10;;
21472;SDS011;10898;48.072;11.682;2023-12-04T06:42:44;8.77;;;6.20;;
21472;SDS011;10898;48.072;11.682;2023-12-04T06:46:48;11.80;;;7.35;;
21472;SDS011;10898;48.072;11.682;2023-12-04T06:48:54;10.63;;;7.28;;
21472;SDS011;10898;48.072;11.682;2023-12-04T06:51:00;8.85;;;5.88;;
21472;SDS011;10898;48.072;11.682;2023-12-04T06:53:02;8.50;;;6.40;;
21472;SDS011;10898;48.072;11.682;2023-12-04T06:55:04;11.00;;;6.95;;
21472;SDS011;10898;48.072;11.682;2023-12-04T06:57:06;10.98;;;6.75;;
21472;SDS011;10898;48.072;11.682;2023-12-04T06:59:09;8.75;;;6.60;;
21472;SDS011;10898;48.072;11.682;2023-12-04T07:01:11;9.20;;;7.38;;
21472;SDS011;10898;48.072;11.682;2023-12-04T07:03:12;10.45;;;7.40;;
21472;SDS011;10898;48.072;11.682;2023-12-04T07:05:14;12.15;;;7.75;;
21472;SDS011;10898;48.072;11.682;2023-12-04T07:07:16;10.70;;;6.97;;
21472;SDS011;10898;48.072;11.682;2023-12-04T07:09:18;10.30;;;6.88;;
21472;SDS011;10898;48.072;11.682;2023-12-04T07:11:20;11.38;;;7.20;;
21472;SDS011;10898;48.072;11.682;2023-12-04T07:13:22;13.07;;;7.22;;
21472;SDS011;10898;48.072;11.682;2023-12-04T07:15:23;11.43;;;7.90;;
21472;SDS011;10898;48.072;11.682;2023-12-04T07:17:25;11.02;;;7.43;;
21472;SDS011;10898;48.072;11.682;2023-12-04T07:19:27;12.45;;;7.57;;
21472;SDS011;10898;48.072;11.682;2023-12-04T07:21:30;12.38;;;8.00;;
21472;SDS011;10898;48.072;11.682;2023-12-04T07:23:32;10.57;;;7.45;;
21472;SDS011;10898;48.072;11.682;2023-12-04T07:25:33;10.75;;;7.88;;
21472;SDS011;10898;48.072;11.682;2023-12-04T07:27:35;8.93;;;7.63;;
21472;SDS011;10898;48.072;11.682;2023-12-04T07:29:37;10.95;;;7.40;;
21472;SDS011;10898;48.072;11.682;2023-12-04T07:31:40;10.05;;;7.28;;
21472;SDS011;10898;48.072;11.682;2023-12-04T07:33:43;9.98;;;7.32;;
21472;SDS011;10898;48.072;11.682;2023-12-04T07:35:44;12.40;;;7.95;;
21472;SDS011;10898;48.072;11.682;2023-12-04T07:37:46;11.82;;;7.72;;
21472;SDS011;10898;48.072;11.682;2023-12-04T07:39:48;11.35;;;7.80;;
21472;SDS011;10898;48.072;11.682;2023-12-04T07:41:50;11.80;;;8.10;;
21472;SDS011;10898;48.072;11.682;2023-12-04T07:43:52;10.50;;;6.88;;
21472;SDS011;10898;48.072;11.682;2023-12-04T07:45:55;12.80;;;7.95;;
21472;SDS011;10898;48.072;11.682;2023-12-04T07:47:57;10.07;;;7.38;;
21472;SDS011;10898;48.072;11.682;2023-12-04T07:49:59;11.98;;;7.07;;
21472;SDS011;10898;48.072;11.682;2023-12-04T07:52:01;9.73;;;7.78;;
21472;SDS011;10898;48.072;11.682;2023-12-04T07:54:04;14.52;;;8.02;;
21472;SDS011;10898;48.072;11.682;2023-12-04T07:56:06;9.75;;;7.35;;
21472;SDS011;10898;48.072;11.682;2023-12-04T07:58:08;10.57;;;6.63;;
21472;SDS011;10898;48.072;11.682;2023-12-04T08:00:10;8.82;;;6.75;;
21472;SDS011;10898;48.072;11.682;2023-12-04T08:02:13;13.23;;;7.93;;
21472;SDS011;10898;48.072;11.682;2023-12-04T08:04:15;10.73;;;8.05;;
21472;SDS011;10898;48.072;11.682;2023-12-04T08:06:17;10.68;;;7.57;;
21472;SDS011;10898;48.072;11.682;2023-12-04T08:08:20;11.05;;;8.15;;
21472;SDS011;10898;48.072;11.682;2023-12-04T08:10:22;10.30;;;8.05;;
21472;SDS011;10898;48.072;11.682;2023-12-04T08:12:24;11.95;;;7.88;;
21472;SDS011;10898;48.072;11.682;2023-12-04T08:14:27;9.70;;;8.20;;
21472;SDS011;10898;48.072;11.682;2023-12-04T08:18:31;11.33;;;7.63;;
21472;SDS011;10898;48.072;11.682;2023-12-04T08:20:32;11.63;;;8.48;;
21472;SDS011;10898;48.072;11.682;2023-12-04T08:22:41;14.57;;;8.95;;
21472;SDS011;10898;48.072;11.682;2023-12-04T08:24:48;12.00;;;8.57;;
21472;SDS011;10898;48.072;11.682;2023-12-04T08:26:50;11.30;;;8.10;;
21472;SDS011;10898;48.072;11.682;2023-12-04T08:28:52;14.98;;;8.32;;
21472;SDS011;10898;48.072;11.682;2023-12-04T08:30:54;13.55;;;9.05;;
21472;SDS011;10898;48.072;11.682;2023-12-04T08:32:55;12.75;;;8.80;;
21472;SDS011;10898;48.072;11.682;2023-12-04T08:34:57;11.10;;;7.72;;
21472;SDS011;10898;48.072;11.682;2023-12-04T08:36:59;13.23;;;8.00;;
21472;SDS011;10898;48.072;11.682;2023-12-04T08:39:01;12.93;;;9.57;;
21472;SDS011;10898;48.072;11.682;2023-12-04T08:41:03;14.68;;;8.90;;
21472;SDS011;10898;48.072;11.682;2023-12-04T08:43:05;11.95;;;8.55;;
21472;SDS011;10898;48.072;11.682;2023-12-04T08:45:08;12.18;;;8.35;;
21472;SDS011;10898;48.072;11.682;2023-12-04T08:47:11;10.95;;;8.05;;
21472;SDS011;10898;48.072;11.682;2023-12-04T08:49:13;13.27;;;9.18;;
21472;SDS011;10898;48.072;11.682;2023-12-04T08:51:16;16.83;;;9.48;;
21472;SDS011;10898;48.072;11.682;2023-12-04T08:53:19;13.10;;;8.85;;
21472;SDS011;10898;48.072;11.682;2023-12-04T08:55:21;13.15;;;8.98;;
21472;SDS011;10898;48.072;11.682;2023-12-04T08:57:23;15.20;;;8.80;;
21472;SDS011;10898;48.072;11.682;2023-12-04T08:59:25;17.52;;;9.95;;
21472;SDS011;10898;48.072;11.682;2023-12-04T09:01:26;14.68;;;9.00;;
21472;SDS011;10898;48.072;11.682;2023-12-04T09:03:29;16.20;;;8.95;;
21472;SDS011;10898;48.072;11.682;2023-12-04T09:05:33;14.45;;;8.32;;
21472;SDS011;10898;48.072;11.682;2023-12-04T09:07:35;12.25;;;8.55;;
21472;SDS011;10898;48.072;11.682;2023-12-04T09:09:41;14.45;;;9.23;;
21472;SDS011;10898;48.072;11.682;2023-12-04T09:11:43;9.07;;;6.72;;
21472;SDS011;10898;48.072;11.682;2023-12-04T09:15:47;10.30;;;6.97;;
21472;SDS011;10898;48.072;11.682;2023-12-04T09:17:49;9.50;;;7.15;;
21472;SDS011;10898;48.072;11.682;2023-12-04T09:19:50;9.77;;;7.13;;
21472;SDS011;10898;48.072;11.682;2023-12-04T09:21:53;9.02;;;7.20;;
21472;SDS011;10898;48.072;11.682;2023-12-04T09:24:08;7.85;;;7.05;;
21472;SDS011;10898;48.072;11.682;2023-12-04T09:26:10;8.38;;;6.88;;
21472;SDS011;10898;48.072;11.682;2023-12-04T09:28:12;9.98;;;6.68;;
21472;SDS011;10898;48.072;11.682;2023-12-04T09:30:14;10.25;;;7.28;;
21472;SDS011;10898;48.072;11.682;2023-12-04T09:32:16;9.80;;;7.35;;
21472;SDS011;10898;48.072;11.682;2023-12-04T09:34:19;11.35;;;6.95;;
21472;SDS011;10898;48.072;11.682;2023-12-04T09:36:21;10.38;;;7.47;;
21472;SDS011;10898;48.072;11.682;2023-12-04T09:38:23;8.73;;;6.55;;
21472;SDS011;10898;48.072;11.682;2023-12-04T09:40:25;9.70;;;7.20;;
21472;SDS011;10898;48.072;11.682;2023-12-04T09:42:28;9.57;;;7.30;;
21472;SDS011;10898;48.072;11.682;2023-12-04T09:44:32;11.15;;;7.78;;
21472;SDS011;10898;48.072;11.682;2023-12-04T09:46:35;10.63;;;7.45;;
21472;SDS011;10898;48.072;11.682;2023-12-04T09:48:37;10.23;;;7.45;;
21472;SDS011;10898;48.072;11.682;2023-12-04T09:50:42;11.10;;;7.13;;
21472;SDS011;10898;48.072;11.682;2023-12-04T09:52:45;8.48;;;6.82;;
21472;SDS011;10898;48.072;11.682;2023-12-04T09:54:47;12.43;;;7.25;;
21472;SDS011;10898;48.072;11.682;2023-12-04T09:56:49;9.45;;;6.97;;
21472;SDS011;10898;48.072;11.682;2023-12-04T09:58:52;11.10;;;7.85;;
21472;SDS011;10898;48.072;11.682;2023-12-04T10:01:00;10.50;;;7.82;;
21472;SDS011;10898;48.072;11.682;2023-12-04T10:03:02;12.55;;;8.20;;
21472;SDS011;10898;48.072;11.682;2023-12-04T10:05:06;11.05;;;7.50;;
21472;SDS011;10898;48.072;11.682;2023-12-04T10:07:08;11.15;;;7.40;;
21472;SDS011;10898;48.072;11.682;2023-12-04T10:09:10;9.85;;;7.25;;
21472;SDS011;10898;48.072;11.682;2023-12-04T10:11:14;10.82;;;7.80;;
21472;SDS011;10898;48.072;11.682;2023-12-04T10:13:16;11.45;;;8.30;;
21472;SDS011;10898;48.072;11.682;2023-12-04T10:15:47;11.77;;;9.18;;
21472;SDS011;10898;48.072;11.682;2023-12-04T10:17:50;14.82;;;9.95;;
21472;SDS011;10898;48.072;11.682;2023-12-04T10:20:01;14.57;;;10.48;;
21472;SDS011;10898;48.072;11.682;2023-12-04T10:22:12;13.60;;;9.65;;
21472;SDS011;10898;48.072;11.682;2023-12-04T10:24:34;13.25;;;10.38;;
21472;SDS011;10898;48.072;11.682;2023-12-04T10:26:38;13.68;;;10.52;;
21472;SDS011;10898;48.072;11.682;2023-12-04T10:29:02;14.60;;;10.82;;
21472;SDS011;10898;48.072;11.682;2023-12-04T10:31:06;15.23;;;10.65;;
21472;SDS011;10898;48.072;11.682;2023-12-04T10:33:08;14.75;;;10.05;;
21472;SDS011;10898;48.072;11.682;2023-12-04T10:35:11;15.32;;;10.52;;
21472;SDS011;10898;48.072;11.682;2023-12-04T10:37:15;13.20;;;9.50;;
21472;SDS011;10898;48.072;11.682;2023-12-04T10:39:17;12.02;;;9.80;;
21472;SDS011;10898;48.072;11.682;2023-12-04T10:41:19;14.13;;;10.05;;
21472;SDS011;10898;48.072;11.682;2023-12-04T10:43:21;13.98;;;10.57;;
21472;SDS011;10898;48.072;11.682;2023-12-04T10:45:24;12.35;;;9.68;;
21472;SDS011;10898;48.072;11.682;2023-12-04T10:47:27;12.68;;;10.20;;
21472;SDS011;10898;48.072;11.682;2023-12-04T10:49:30;14.05;;;9.65;;
21472;SDS011;10898;48.072;11.682;2023-12-04T10:51:33;14.20;;;9.80;;
21472;SDS011;10898;48.072;11.682;2023-12-04T10:53:36;16.13;;;10.77;;
21472;SDS011;10898;48.072;11.682;2023-12-04T10:55:38;12.27;;;9.23;;
21472;SDS011;10898;48.072;11.682;2023-12-04T10:57:41;14.00;;;9.60;;
21472;SDS011;10898;48.072;11.682;2023-12-04T10:59:45;15.40;;;9.52;;
21472;SDS011;10898;48.072;11.682;2023-12-04T11:01:48;16.65;;;9.98;;
21472;SDS011;10898;48.072;11.682;2023-12-04T11:03:53;14.40;;;9.38;;
21472;SDS011;10898;48.072;11.682;2023-12-04T11:06:00;13.80;;;9.98;;
21472;SDS011;10898;48.072;11.682;2023-12-04T11:08:09;13.75;;;9.75;;
21472;SDS011;10898;48.072;11.682;2023-12-04T11:10:22;12.32;;;9.00;;
21472;SDS011;10898;48.072;11.682;2023-12-04T11:12:27;14.98;;;9.80;;
21472;SDS011;10898;48.072;11.682;2023-12-04T11:14:34;13.13;;;10.10;;
21472;SDS011;10898;48.072;11.682;2023-12-04T11:16:53;15.85;;;10.52;;
21472;SDS011;10898;48.072;11.682;2023-12-04T11:19:06;17.55;;;9.93;;
21472;SDS011;10898;48.072;11.682;2023-12-04T11:21:18;15.13;;;10.93;;
21472;SDS011;10898;48.072;11.682;2023-12-04T11:23:22;16.45;;;9.85;;
21472;SDS011;10898;48.072;11.682;2023-12-04T11:25:25;14.38;;;8.57;;
21472;SDS011;10898;48.072;11.682;2023-12-04T11:27:27;12.63;;;8.45;;
21472;SDS011;10898;48.072;11.682;2023-12-04T11:29:29;12.98;;;8.35;;
21472;SDS011;10898;48.072;11.682;2023-12-04T11:31:33;12.68;;;8.25;;
21472;SDS011;10898;48.072;11.682;2023-12-04T11:33:35;13.50;;;8.85;;
21472;SDS011;10898;48.072;11.682;2023-12-04T11:35:39;10.10;;;7.82;;
21472;SDS011;10898;48.072;11.682;2023-12-04T11:37:41;8.48;;;6.18;;
21472;SDS011;10898;48.072;11.682;2023-12-04T11:39:47;10.20;;;7.88;;
21472;SDS011;10898;48.072;11.682;2023-12-04T11:41:50;12.55;;;8.13;;
21472;SDS011;10898;48.072;11.682;2023-12-04T11:43:54;12.80;;;9.02;;
21472;SDS011;10898;48.072;11.682;2023-12-04T11:46:09;12.73;;;8.55;;
21472;SDS011;10898;48.072;11.682;2023-12-04T11:48:12;11.27;;;8.73;;
21472;SDS011;10898;48.072;11.682;2023-12-04T11:50:16;13.05;;;8.48;;
21472;SDS011;10898;48.072;11.682;2023-12-04T11:52:34;11.07;;;7.63;;
21472;SDS011;10898;48.072;11.682;2023-12-04T11:55:22;11.50;;;7.65;;
21472;SDS011;10898;48.072;11.682;2023-12-04T11:59:12;12.85;;;8.43;;
21472;SDS011;10898;48.072;11.682;2023-12-04T12:01:16;12.27;;;8.77;;
21472;SDS011;10898;48.072;11.682;2023-12-04T12:03:19;13.52;;;8.82;;
21472;SDS011;10898;48.072;11.682;2023-12-04T12:05:24;11.35;;;8.43;;
21472;SDS011;10898;48.072;11.682;2023-12-04T12:07:28;11.45;;;8.57;;
21472;SDS011;10898;48.072;11.682;2023-12-04T12:09:30;15.13;;;10.13;;
21472;SDS011;10898;48.072;11.682;2023-12-04T12:11:33;13.13;;;9.32;;
21472;SDS011;10898;48.072;11.682;2023-12-04T12:13:35;12.57;;;9.00;;
21472;SDS011;10898;48.072;11.682;2023-12-04T12:15:37;10.77;;;8.57;;
21472;SDS011;10898;48.072;11.682;2023-12-04T12:17:39;12.38;;;8.80;;
21472;SDS011;10898;48.072;11.682;2023-12-04T12:19:42;12.60;;;8.75;;
21472;SDS011;10898;48.072;11.682;2023-12-04T12:21:44;9.93;;;8.65;;
21472;SDS011;10898;48.072;11.682;2023-12-04T12:23:46;10.52;;;8.43;;
21472;SDS011;10898;48.072;11.682;2023-12-04T12:25:48;12.38;;;8.32;;
21472;SDS011;10898;48.072;11.682;2023-12-04T12:27:52;12.75;;;8.98;;